Happy Valley, North Carolina
Current Conditions -  °F | °C
As of 6:15 PM on Wednesday 26 Nov 2014 (Local Time) from KMRN Reporting Station
Clear Clear  
Wind Chill: 42°   Ceiling: Unl
Heat Index: 42°   Visibility: 10mi
Dew Point: 35°   Wind: 3mph
Humidity: 77%   Direction: 30°NNE
Pressure: 30.04"   Gusts: NA
Location:  35.9886°N, 81.5588°W
Report Text: KMRN 262315Z AUTO 03003KT 10SM CLR 06/02 A3004 RMK AO2 T00570019
Loading
Personal Weather Stations






























Interactive Weather Map New forecast layout! Learn more

10-Day Weather Forecast

Advertisements
Track Severe Weather on mobile